Time;durP1;ratioP1;P1;durP2;ratioP2;P2;SDS_P1;SDS_P2;PMS_P1;PMS_P2;Temp;Humidity;BMP_temperature;BMP_pressure;BME280_temperature;BME280_humidity;BME280_pressure;Samples;Min_cycle;Max_cycle;Signal;HPM_P1;HPM_P2
2023/02/27 00:00:22;;;;;;;13.80;6.30;;;1.00;43.30;;;;;;5034380;28;20382;-73
2023/02/27 00:02:50;;;;;;;11.02;5.90;;;0.80;44.20;;;;;;5031009;28;20383;-73
2023/02/27 00:05:16;;;;;;;15.68;8.68;;;0.60;46.40;;;;;;5030803;28;20391;-74
2023/02/27 00:07:42;;;;;;;8.98;5.65;;;0.30;48.00;;;;;;5031135;28;20395;-72
2023/02/27 00:10:13;;;;;;;10.05;6.10;;;0.10;50.20;;;;;;5030811;28;20398;-73
2023/02/27 00:12:39;;;;;;;14.27;5.80;;;0.20;51.20;;;;;;5031696;28;20439;-73
2023/02/27 00:15:09;;;;;;;10.10;5.70;;;0.50;48.90;;;;;;5039050;28;20941;-73
2023/02/27 00:17:35;;;;;;;8.73;5.10;;;0.70;46.60;;;;;;5039696;28;20383;-73
2023/02/27 00:20:02;;;;;;;8.98;4.90;;;0.80;45.30;;;;;;5039581;28;20387;-73
2023/02/27 00:22:28;;;;;;;8.43;5.40;;;0.90;45.10;;;;;;5038972;28;20872;-72
2023/02/27 00:24:53;;;;;;;10.10;5.30;;;0.90;44.10;;;;;;5040129;28;20433;-74
2023/02/27 00:27:19;;;;;;;8.25;5.43;;;0.90;43.70;;;;;;5036833;28;20390;-73
2023/02/27 00:29:44;;;;;;;11.23;6.30;;;0.90;43.60;;;;;;5034467;28;20387;-72
2023/02/27 00:32:10;;;;;;;11.50;7.13;;;0.80;44.00;;;;;;5041724;28;20390;-73
2023/02/27 00:34:36;;;;;;;8.90;5.60;;;0.30;47.20;;;;;;5024748;28;20429;-72
2023/02/27 00:37:01;;;;;;;10.57;6.77;;;0.10;51.20;;;;;;5046625;28;20391;-73
2023/02/27 00:39:27;;;;;;;9.52;5.18;;;-0.10;52.20;;;;;;5047452;28;20841;-73
2023/02/27 00:41:52;;;;;;;9.07;5.00;;;0.00;52.70;;;;;;5032679;28;20385;-73
2023/02/27 00:44:18;;;;;;;8.10;4.90;;;0.40;50.10;;;;;;5036344;28;20399;-73
2023/02/27 00:46:43;;;;;;;10.87;4.80;;;0.60;47.40;;;;;;5036086;28;20390;-73
2023/02/27 00:49:09;;;;;;;9.77;5.50;;;0.80;45.40;;;;;;5035146;28;20387;-74
2023/02/27 00:51:34;;;;;;;9.52;4.97;;;0.90;44.40;;;;;;5034313;28;20383;-73
2023/02/27 00:54:00;;;;;;;6.75;5.00;;;0.90;44.10;;;;;;5034395;28;20411;-74
2023/02/27 00:56:26;;;;;;;8.20;4.93;;;0.90;44.00;;;;;;5034173;28;20483;-74
2023/02/27 00:58:51;;;;;;;10.27;5.37;;;0.80;45.10;;;;;;5034160;28;20387;-73
2023/02/27 01:01:17;;;;;;;10.50;5.57;;;0.80;44.90;;;;;;5016048;28;20394;-74
2023/02/27 01:03:42;;;;;;;8.23;4.50;;;0.80;45.50;;;;;;5034549;28;20414;-73
2023/02/27 01:06:08;;;;;;;17.13;5.47;;;0.70;47.00;;;;;;5034644;28;20747;-74
2023/02/27 01:08:33;;;;;;;18.70;5.47;;;0.80;45.90;;;;;;5016616;28;20391;-73
2023/02/27 01:10:59;;;;;;;9.47;5.17;;;0.80;46.80;;;;;;5034037;28;20397;-74
2023/02/27 01:13:25;;;;;;;9.30;5.22;;;0.70;47.70;;;;;;5033989;28;20426;-73
2023/02/27 01:15:50;;;;;;;9.90;5.80;;;0.60;49.50;;;;;;5033868;28;20398;-74
2023/02/27 01:18:16;;;;;;;8.07;5.30;;;0.50;50.40;;;;;;5034290;28;20397;-73
2023/02/27 01:20:42;;;;;;;9.55;4.70;;;0.40;53.40;;;;;;5034133;28;20414;-74
2023/02/27 01:23:07;;;;;;;8.40;5.60;;;0.60;51.60;;;;;;5033785;28;20430;-74
2023/02/27 01:25:33;;;;;;;9.37;5.57;;;0.60;53.00;;;;;;5033924;28;20398;-73
2023/02/27 01:27:59;;;;;;;7.05;4.90;;;0.70;52.40;;;;;;5035031;28;20394;-74
2023/02/27 01:30:25;;;;;;;8.15;5.20;;;0.70;51.30;;;;;;5033825;28;20399;-74
2023/02/27 01:32:50;;;;;;;11.07;5.80;;;0.40;52.30;;;;;;5033687;28;20399;-75
2023/02/27 01:35:16;;;;;;;7.63;5.13;;;0.40;53.70;;;;;;5033834;28;20470;-73
2023/02/27 01:37:43;;;;;;;9.87;6.00;;;0.60;53.00;;;;;;5033847;28;20418;-73
2023/02/27 01:40:09;;;;;;;10.80;5.47;;;0.50;53.00;;;;;;5033786;28;20379;-73
2023/02/27 01:42:35;;;;;;;9.18;5.38;;;0.70;52.00;;;;;;5034911;28;20387;-74
2023/02/27 01:45:10;;;;;;;10.52;5.57;;;0.60;52.30;;;;;;5039469;28;20391;-74
2023/02/27 01:47:40;;;;;;;8.73;5.80;;;0.60;50.90;;;;;;5034770;28;20971;-74
2023/02/27 01:50:08;;;;;;;8.85;5.18;;;0.60;51.60;;;;;;5034509;28;20387;-74
2023/02/27 01:52:35;;;;;;;11.98;5.60;;;0.80;49.20;;;;;;5033068;28;20959;-73
2023/02/27 01:55:04;;;;;;;11.15;5.22;;;0.80;49.60;;;;;;5033032;28;20387;-73
2023/02/27 01:57:29;;;;;;;9.73;5.30;;;0.80;48.00;;;;;;5033522;28;20401;-73
2023/02/27 01:59:55;;;;;;;9.50;5.80;;;0.80;48.20;;;;;;5034047;28;20931;-73
2023/02/27 02:02:37;;;;;;;11.20;6.40;;;0.70;50.30;;;;;;5033306;28;20574;-74
2023/02/27 02:05:06;;;;;;;10.52;6.07;;;0.70;50.60;;;;;;5032773;28;20391;-74
2023/02/27 02:07:33;;;;;;;11.40;5.70;;;0.70;49.60;;;;;;5034596;28;20482;-73
2023/02/27 02:10:00;;;;;;;9.68;5.90;;;0.80;48.10;;;;;;5035104;28;20503;-74
2023/02/27 02:12:30;;;;;;;11.27;6.07;;;0.80;47.90;;;;;;5034916;28;20399;-73
2023/02/27 02:14:55;;;;;;;11.43;6.00;;;0.80;47.60;;;;;;5034718;28;20387;-74
2023/02/27 02:17:52;;;;;;;8.45;5.70;;;0.70;48.00;;;;;;5033659;28;20792;-74
2023/02/27 02:20:35;;;;;;;15.55;5.85;;;0.70;48.10;;;;;;5033019;28;20880;-74
2023/02/27 02:23:12;;;;;;;8.38;5.75;;;0.70;48.80;;;;;;5032675;28;20390;-74
2023/02/27 02:26:11;;;;;;;11.95;6.18;;;0.70;49.00;;;;;;5032937;28;20895;-74
2023/02/27 02:28:55;;;;;;;8.05;6.00;;;0.60;49.30;;;;;;5032598;28;20391;-74
2023/02/27 02:31:57;;;;;;;10.63;6.10;;;0.50;50.30;;;;;;5032529;28;20425;-75
2023/02/27 02:34:45;;;;;;;9.93;6.30;;;0.50;51.30;;;;;;5033085;28;20461;-73
2023/02/27 02:37:39;;;;;;;14.27;6.70;;;0.50;51.40;;;;;;5033202;28;20437;-74
2023/02/27 02:40:23;;;;;;;8.52;5.80;;;0.30;52.30;;;;;;5033757;28;20387;-73
2023/02/27 02:43:04;;;;;;;16.77;7.73;;;0.20;52.30;;;;;;5015546;28;20737;-73
2023/02/27 02:45:39;;;;;;;16.25;7.75;;;-0.10;55.40;;;;;;5033609;28;20394;-73
2023/02/27 02:48:10;;;;;;;14.90;7.60;;;-0.20;56.00;;;;;;5033962;28;20756;-76
2023/02/27 02:51:05;;;;;;;10.82;6.80;;;-0.50;58.20;;;;;;5033272;28;20379;-72
2023/02/27 02:53:54;;;;;;;16.42;6.90;;;-0.60;61.00;;;;;;5033760;28;20498;-73
2023/02/27 02:56:25;;;;;;;8.98;6.53;;;-0.20;59.00;;;;;;5034231;28;20902;-74
2023/02/27 02:59:17;;;;;;;13.75;6.55;;;-0.10;57.10;;;;;;5033233;28;20390;-74
2023/02/27 03:01:51;;;;;;;10.48;6.05;;;-0.10;56.40;;;;;;5034216;28;20387;-74
2023/02/27 03:04:38;;;;;;;11.85;6.68;;;0.00;56.50;;;;;;5034605;28;20430;-74
2023/02/27 03:07:22;;;;;;;15.00;7.00;;;-0.20;57.60;;;;;;5032797;28;20422;-74
2023/02/27 03:10:02;;;;;;;12.07;6.50;;;-0.10;57.60;;;;;;5033834;28;20404;-73
2023/02/27 03:12:30;;;;;;;15.93;6.40;;;0.00;56.20;;;;;;5032560;28;20891;-75
2023/02/27 03:15:09;;;;;;;12.10;6.55;;;0.10;54.70;;;;;;5033510;28;20391;-72
2023/02/27 03:17:42;;;;;;;12.98;6.30;;;0.10;54.80;;;;;;5032727;28;20379;-74
2023/02/27 03:20:14;;;;;;;9.77;6.00;;;0.10;54.70;;;;;;5032969;28;20808;-74
2023/02/27 03:22:45;;;;;;;11.93;6.50;;;0.00;54.80;;;;;;5031965;28;20383;-74
2023/02/27 03:25:12;;;;;;;11.35;7.40;;;-0.20;56.60;;;;;;5033077;28;20908;-74
2023/02/27 03:27:50;;;;;;;11.57;7.65;;;-0.50;58.90;;;;;;5014800;28;20403;-73
2023/02/27 03:30:31;;;;;;;11.10;6.93;;;-0.70;62.40;;;;;;5032263;28;20898;-73
2023/02/27 03:33:03;;;;;;;9.57;6.28;;;-0.50;63.40;;;;;;5033031;28;20451;-73
2023/02/27 03:35:50;;;;;;;9.05;6.55;;;-0.60;62.10;;;;;;5033144;28;20536;-73
2023/02/27 03:38:16;;;;;;;67.25;14.05;;;-0.40;61.70;;;;;;5033942;28;20791;-73
2023/02/27 03:41:02;;;;;;;15.10;6.97;;;-0.20;60.10;;;;;;5034554;28;20390;-74
2023/02/27 03:43:40;;;;;;;9.57;6.35;;;-0.20;58.90;;;;;;5034275;28;20384;-73
2023/02/27 03:46:15;;;;;;;11.68;6.47;;;-0.30;59.50;;;;;;5036251;28;20386;-74
2023/02/27 03:48:43;;;;;;;13.23;6.80;;;-0.40;60.00;;;;;;5036337;28;20409;-74
2023/02/27 03:51:17;;;;;;;10.10;6.70;;;-0.50;60.40;;;;;;5035029;28;20860;-74
2023/02/27 03:54:02;;;;;;;11.82;6.47;;;-0.50;61.10;;;;;;5032894;28;20430;-73
2023/02/27 03:56:44;;;;;;;12.52;6.60;;;-0.80;63.60;;;;;;5031898;28;20888;-73
2023/02/27 03:59:10;;;;;;;11.75;6.72;;;-0.70;65.20;;;;;;5034355;28;20383;-74
2023/02/27 04:01:36;;;;;;;14.98;7.13;;;-0.70;64.70;;;;;;5033082;28;20490;-74
2023/02/27 04:04:09;;;;;;;9.05;6.57;;;-0.90;64.50;;;;;;5032084;28;20795;-73
2023/02/27 04:09:28;;;;;;;12.93;7.30;;;-1.20;70.00;;;;;;5031705;28;20382;-74
2023/02/27 04:11:59;;;;;;;10.45;6.80;;;-1.30;70.60;;;;;;5031434;28;20741;-74
2023/02/27 04:15:06;;;;;;;9.50;6.53;;;-1.40;71.60;;;;;;5013180;28;20776;-73
2023/02/27 04:17:40;;;;;;;9.48;6.25;;;-1.50;72.80;;;;;;5033145;28;20380;-73
2023/02/27 04:20:09;;;;;;;10.07;6.45;;;-1.20;72.60;;;;;;5038002;28;20856;-73
2023/02/27 04:22:59;;;;;;;15.90;7.37;;;-1.10;69.00;;;;;;5037618;28;20428;-73
2023/02/27 04:26:03;;;;;;;12.13;7.18;;;-1.40;69.90;;;;;;5037576;28;20413;-75
2023/02/27 04:28:50;;;;;;;17.73;8.35;;;-1.30;71.60;;;;;;5039641;28;20498;-73
2023/02/27 04:31:31;;;;;;;13.40;6.72;;;-1.50;72.50;;;;;;5039649;28;20444;-74
2023/02/27 04:34:13;;;;;;;15.18;7.35;;;-1.50;73.30;;;;;;5038098;28;20566;-73
2023/02/27 04:36:38;;;;;;;12.30;7.75;;;-1.60;74.10;;;;;;5037926;28;20379;-73
2023/02/27 04:39:07;;;;;;;13.67;7.47;;;-1.60;75.90;;;;;;5021689;28;20860;-75
2023/02/27 04:41:57;;;;;;;10.65;7.07;;;-1.60;76.60;;;;;;5039699;28;20868;-73
2023/02/27 04:44:24;;;;;;;11.70;7.10;;;-1.70;77.00;;;;;;5040526;28;20406;-73
2023/02/27 04:46:52;;;;;;;16.08;7.82;;;-1.60;76.90;;;;;;5037354;28;20413;-73
2023/02/27 04:49:21;;;;;;;10.68;6.95;;;-1.50;76.70;;;;;;5037461;28;20387;-74
2023/02/27 04:51:54;;;;;;;11.40;7.10;;;-1.40;74.60;;;;;;5037152;28;20394;-73
2023/02/27 04:54:28;;;;;;;9.18;6.63;;;-1.20;74.10;;;;;;5037512;28;20402;-73
2023/02/27 04:56:58;;;;;;;10.85;6.95;;;-1.10;71.50;;;;;;5037256;28;20383;-74
2023/02/27 04:59:31;;;;;;;16.05;6.75;;;-1.00;70.70;;;;;;5037651;28;20368;-73
2023/02/27 05:02:24;;;;;;;11.52;6.75;;;-0.90;68.30;;;;;;5037284;28;20398;-73
2023/02/27 05:04:54;;;;;;;12.02;7.60;;;-0.90;66.70;;;;;;5037079;28;20421;-73
2023/02/27 05:07:24;;;;;;;12.35;7.03;;;-0.90;69.40;;;;;;5037256;28;20389;-74
2023/02/27 05:10:00;;;;;;;15.25;7.50;;;-1.10;69.00;;;;;;5037514;28;20383;-74
2023/02/27 05:12:43;;;;;;;16.00;7.55;;;-1.20;70.60;;;;;;5036707;28;20379;-73
2023/02/27 05:15:14;;;;;;;18.77;8.05;;;-1.40;72.50;;;;;;5037104;28;20408;-73
2023/02/27 05:17:43;;;;;;;11.88;7.68;;;-1.50;75.50;;;;;;5036939;28;20373;-73
2023/02/27 05:20:11;;;;;;;16.90;8.75;;;-1.30;75.30;;;;;;5037119;28;20414;-75
2023/02/27 05:22:43;;;;;;;15.13;7.40;;;-1.20;73.20;;;;;;5036377;28;20390;-74
2023/02/27 05:25:14;;;;;;;17.67;7.77;;;-1.20;72.50;;;;;;5036629;28;20413;-74
2023/02/27 05:28:08;;;;;;;20.20;8.05;;;-1.10;72.20;;;;;;5036636;28;20740;-73
2023/02/27 05:30:58;;;;;;;12.27;7.40;;;-0.90;69.90;;;;;;5032929;28;20466;-73
2023/02/27 05:33:44;;;;;;;17.20;8.35;;;-1.00;70.10;;;;;;5033560;28;20457;-74
2023/02/27 05:36:17;;;;;;;14.13;7.50;;;-0.30;70.20;;;;;;5033448;28;20473;-73
2023/02/27 05:38:47;;;;;;;12.88;7.75;;;-0.80;68.10;;;;;;5033975;28;20753;-72
2023/02/27 05:41:36;;;;;;;12.05;7.60;;;-0.90;67.70;;;;;;5033975;28;20895;-75
2023/02/27 05:44:10;;;;;;;12.77;7.40;;;-0.80;67.60;;;;;;5033599;28;20401;-74
2023/02/27 05:46:41;;;;;;;12.75;7.35;;;-0.80;67.70;;;;;;5033712;28;20383;-73
2023/02/27 05:49:13;;;;;;;12.98;8.20;;;-0.50;69.70;;;;;;5034308;28;20387;-74
2023/02/27 05:51:42;;;;;;;19.45;8.60;;;-1.10;71.40;;;;;;5033462;28;20457;-74
2023/02/27 05:54:42;;;;;;;18.00;8.43;;;-1.30;72.60;;;;;;5034322;28;20414;-73
2023/02/27 05:57:15;;;;;;;15.90;8.30;;;-1.50;75.40;;;;;;5037013;28;20395;-75
2023/02/27 05:59:49;;;;;;;12.63;8.10;;;-1.40;76.40;;;;;;5043207;28;20398;-72
2023/02/27 06:02:14;;;;;;;14.40;8.30;;;-1.40;77.60;;;;;;5016562;28;20391;-73
2023/02/27 06:04:40;;;;;;;21.47;9.23;;;-1.60;79.30;;;;;;5033715;28;20499;-74
2023/02/27 06:07:06;;;;;;;15.30;8.20;;;-1.40;80.30;;;;;;5033272;28;20383;-73
2023/02/27 06:09:32;;;;;;;13.50;8.70;;;-1.20;78.60;;;;;;5033426;28;20391;-73
2023/02/27 06:12:00;;;;;;;23.63;9.45;;;-1.10;75.60;;;;;;5032784;28;20387;-73
2023/02/27 06:14:26;;;;;;;18.88;8.18;;;-0.60;73.10;;;;;;5032868;28;20412;-73
2023/02/27 06:16:52;;;;;;;13.35;8.63;;;-0.90;70.70;;;;;;5032995;28;20383;-74
2023/02/27 06:19:17;;;;;;;18.77;8.20;;;-0.90;71.20;;;;;;5033261;28;20752;-74
2023/02/27 06:21:43;;;;;;;13.63;8.10;;;-0.80;70.10;;;;;;5033166;28;20389;-74
2023/02/27 06:24:11;;;;;;;11.97;7.60;;;-0.90;70.40;;;;;;5032873;28;20474;-77
2023/02/27 06:26:37;;;;;;;12.75;8.02;;;-0.80;69.20;;;;;;5032733;28;20383;-74
2023/02/27 06:29:02;;;;;;;12.90;7.77;;;-0.80;69.30;;;;;;5032798;28;20942;-73
2023/02/27 06:31:28;;;;;;;15.93;7.60;;;-0.80;69.40;;;;;;5015055;28;20422;-73
2023/02/27 06:33:54;;;;;;;12.75;7.70;;;-0.80;70.50;;;;;;5017553;28;20414;-73
2023/02/27 06:36:21;;;;;;;18.67;8.20;;;-0.70;70.10;;;;;;5037016;28;20407;-74
2023/02/27 06:38:47;;;;;;;14.20;7.80;;;-0.60;68.40;;;;;;5035206;28;20454;-74
2023/02/27 06:41:13;;;;;;;11.80;8.10;;;-0.60;68.40;;;;;;5034242;28;20490;-73
2023/02/27 06:43:38;;;;;;;17.60;10.27;;;-0.70;67.90;;;;;;5034496;28;20741;-73
2023/02/27 06:46:04;;;;;;;17.00;8.77;;;-0.60;68.80;;;;;;5034535;28;20387;-74
2023/02/27 06:48:30;;;;;;;18.80;9.05;;;-0.50;66.90;;;;;;5034610;28;20395;-73
2023/02/27 06:50:56;;;;;;;12.87;8.40;;;-0.40;64.60;;;;;;5033700;28;20487;-73
2023/02/27 06:53:22;;;;;;;13.82;8.40;;;-0.40;65.00;;;;;;5033210;28;20443;-73
2023/02/27 06:55:48;;;;;;;16.20;8.87;;;-0.40;64.70;;;;;;5033353;28;20390;-75
2023/02/27 06:58:14;;;;;;;15.82;8.57;;;-0.50;65.80;;;;;;5034082;28;20387;-73
2023/02/27 07:00:40;;;;;;;14.25;8.52;;;-0.40;66.60;;;;;;5034181;28;20512;-73
2023/02/27 07:03:06;;;;;;;14.60;7.93;;;-0.30;65.80;;;;;;5034712;28;20428;-73
2023/02/27 07:05:31;;;;;;;17.37;7.57;;;-0.30;64.90;;;;;;5033573;28;20509;-74
2023/02/27 07:07:57;;;;;;;17.92;8.10;;;-0.20;64.50;;;;;;5031805;28;20390;-73
2023/02/27 07:10:23;;;;;;;12.90;7.33;;;-0.20;63.90;;;;;;5031590;28;20414;-72
2023/02/27 07:12:49;;;;;;;14.07;8.27;;;-0.10;64.10;;;;;;5031517;28;20395;-72
2023/02/27 07:15:15;;;;;;;12.57;7.75;;;-0.10;63.70;;;;;;5031277;28;20463;-72
2023/02/27 07:17:40;;;;;;;15.93;7.80;;;-0.10;63.30;;;;;;5032047;28;20869;-73
2023/02/27 07:20:09;;;;;;;13.50;7.80;;;-0.10;63.50;;;;;;5045677;28;20410;-73
2023/02/27 07:22:35;;;;;;;14.70;7.93;;;0.00;63.30;;;;;;5049315;28;20383;-72
2023/02/27 07:25:00;;;;;;;11.40;7.90;;;0.00;63.90;;;;;;5049715;28;20478;-72
2023/02/27 07:27:26;;;;;;;16.73;7.20;;;0.10;62.80;;;;;;5048423;28;20418;-74
2023/02/27 07:29:51;;;;;;;16.67;7.40;;;0.10;61.40;;;;;;5036741;28;20391;-72
2023/02/27 07:32:17;;;;;;;16.45;7.50;;;0.20;61.00;;;;;;5031262;28;20384;-74
2023/02/27 07:34:42;;;;;;;10.70;7.20;;;0.20;59.80;;;;;;5031138;28;20462;-73
2023/02/27 07:37:08;;;;;;;14.57;8.57;;;0.20;59.60;;;;;;5031282;28;20394;-73
2023/02/27 07:39:33;;;;;;;11.48;7.85;;;0.30;59.70;;;;;;5031424;28;20383;-73
2023/02/27 07:41:59;;;;;;;13.13;7.72;;;0.30;58.90;;;;;;5031283;28;20410;-72
2023/02/27 07:44:24;;;;;;;13.13;7.30;;;0.40;57.60;;;;;;5030871;28;20894;-73
2023/02/27 07:46:50;;;;;;;12.13;7.17;;;0.40;57.90;;;;;;5031037;28;20394;-72
2023/02/27 07:49:16;;;;;;;12.13;7.50;;;0.50;56.80;;;;;;5031193;28;20383;-74
2023/02/27 07:51:41;;;;;;;15.90;7.80;;;0.60;56.60;;;;;;5031432;28;20379;-72
2023/02/27 07:54:07;;;;;;;12.10;7.40;;;0.60;56.00;;;;;;5031303;28;20805;-73
2023/02/27 07:56:32;;;;;;;13.80;7.60;;;0.70;55.60;;;;;;5032086;28;20883;-74
2023/02/27 07:58:58;;;;;;;13.93;7.80;;;0.80;55.10;;;;;;5031941;28;20389;-73
2023/02/27 08:01:23;;;;;;;15.35;7.35;;;0.80;54.60;;;;;;5013114;28;20658;-73
2023/02/27 08:03:49;;;;;;;9.70;7.13;;;0.90;54.60;;;;;;5030990;28;20840;-73
2023/02/27 08:06:14;;;;;;;24.00;7.90;;;0.90;53.60;;;;;;5031309;28;20391;-74
2023/02/27 08:08:40;;;;;;;12.93;8.23;;;1.00;52.90;;;;;;5032898;28;20413;-74
2023/02/27 08:11:06;;;;;;;15.52;8.30;;;1.00;52.60;;;;;;5032160;28;20398;-73
2023/02/27 08:13:32;;;;;;;14.90;7.50;;;1.10;53.70;;;;;;5032348;28;20447;-73
2023/02/27 08:15:57;;;;;;;12.50;7.10;;;1.10;54.60;;;;;;5032758;28;20541;-73
2023/02/27 08:18:23;;;;;;;14.30;7.60;;;1.20;52.30;;;;;;5012969;28;20395;-73
2023/02/27 08:20:48;;;;;;;10.60;7.10;;;1.40;52.10;;;;;;5031040;28;20391;-72
2023/02/27 08:23:14;;;;;;;12.80;7.33;;;1.40;51.20;;;;;;5013186;28;20399;-73
2023/02/27 08:25:40;;;;;;;11.70;7.03;;;1.50;51.10;;;;;;5030908;28;20505;-72
2023/02/27 08:28:05;;;;;;;8.05;6.50;;;1.70;48.30;;;;;;5032587;28;20391;-74
2023/02/27 08:30:31;;;;;;;14.30;7.50;;;1.70;48.10;;;;;;5036227;28;20950;-74
2023/02/27 08:32:56;;;;;;;13.97;6.93;;;1.90;47.00;;;;;;5036370;28;20784;-73
2023/02/27 08:35:22;;;;;;;14.23;7.33;;;2.00;46.30;;;;;;5037407;28;20753;-74
2023/02/27 08:37:48;;;;;;;9.60;5.85;;;2.10;45.20;;;;;;5036330;28;20387;-74
2023/02/27 08:40:14;;;;;;;11.23;5.80;;;2.20;44.10;;;;;;5034984;28;20387;-73
2023/02/27 08:42:40;;;;;;;13.00;6.10;;;2.20;43.10;;;;;;5034418;28;20387;-73
2023/02/27 08:45:07;;;;;;;9.60;6.20;;;2.30;43.60;;;;;;5034930;28;20398;-73
2023/02/27 08:47:32;;;;;;;13.10;6.00;;;2.40;42.40;;;;;;5035290;28;20449;-73
2023/02/27 08:49:58;;;;;;;16.80;6.17;;;2.40;42.00;;;;;;5017195;28;20395;-74
2023/02/27 08:52:24;;;;;;;11.63;6.03;;;2.50;41.80;;;;;;5015408;28;20426;-72
2023/02/27 08:54:49;;;;;;;8.68;5.13;;;2.60;41.20;;;;;;5033198;28;20410;-73
2023/02/27 08:57:15;;;;;;;11.27;5.20;;;2.70;38.30;;;;;;5016275;28;20427;-73
2023/02/27 08:59:40;;;;;;;8.33;4.73;;;2.80;38.80;;;;;;5038316;28;20915;-74
2023/02/27 09:02:06;;;;;;;6.93;4.57;;;2.90;36.60;;;;;;5036368;28;20410;-71
2023/02/27 09:04:31;;;;;;;12.03;5.43;;;2.90;36.80;;;;;;5038312;28;20864;-73
2023/02/27 09:06:57;;;;;;;14.48;5.35;;;3.00;37.70;;;;;;5045862;28;20395;-73
2023/02/27 09:09:23;;;;;;;9.52;4.68;;;3.00;35.70;;;;;;5046207;28;20391;-72
2023/02/27 09:11:52;;;;;;;8.90;3.87;;;3.20;36.40;;;;;;5040902;28;20397;-73
2023/02/27 09:14:18;;;;;;;6.65;4.47;;;3.20;34.80;;;;;;5034132;28;20488;-73
2023/02/27 09:16:44;;;;;;;163.87;72.33;;;3.30;35.20;;;;;;5015957;28;20516;-72
2023/02/27 09:19:10;;;;;;;21.15;10.05;;;5.90;37.80;;;;;;5033572;28;20398;-73
2023/02/27 09:21:36;;;;;;;18.48;6.90;;;3.70;33.80;;;;;;5033529;28;20379;-73
2023/02/27 09:24:03;;;;;;;15.63;6.30;;;3.60;32.00;;;;;;5032971;28;20459;-73
2023/02/27 09:26:29;;;;;;;22.85;11.65;;;3.60;33.40;;;;;;5015654;28;20391;-73
2023/02/27 09:28:54;;;;;;;12.07;3.83;;;3.60;34.00;;;;;;5015693;28;20414;-72
2023/02/27 09:31:20;;;;;;;16.70;6.40;;;3.70;32.50;;;;;;5032993;28;20483;-72
2023/02/27 09:33:45;;;;;;;5.95;2.95;;;3.80;32.60;;;;;;5033356;28;20414;-72
2023/02/27 09:36:12;;;;;;;10.17;3.10;;;3.70;31.70;;;;;;5015539;28;20875;-72
2023/02/27 09:38:37;;;;;;;18.38;8.32;;;3.70;32.00;;;;;;5034853;28;20380;-76
2023/02/27 09:41:05;;;;;;;17.77;8.57;;;3.90;38.00;;;;;;5019021;28;20413;-72
2023/02/27 09:43:38;;;;;;;7.28;3.15;;;4.20;36.00;;;;;;5038023;28;20394;-71
2023/02/27 09:46:05;;;;;;;14.20;6.30;;;4.30;30.50;;;;;;5036573;28;20399;-73
2023/02/27 09:48:36;;;;;;;8.45;3.50;;;4.10;30.90;;;;;;5037293;28;20394;-72
2023/02/27 09:51:02;;;;;;;11.30;4.07;;;4.00;31.70;;;;;;5033847;28;20445;-72
2023/02/27 09:53:36;;;;;;;8.32;3.10;;;4.20;31.90;;;;;;5036616;28;20407;-72
2023/02/27 09:56:27;;;;;;;6.30;3.22;;;4.10;31.20;;;;;;5037496;28;20375;-73
2023/02/27 09:59:18;;;;;;;10.00;3.60;;;4.10;32.60;;;;;;5035815;28;20655;-72
2023/02/27 10:01:49;;;;;;;7.60;2.90;;;4.20;32.90;;;;;;5034527;28;20402;-74
2023/02/27 10:04:23;;;;;;;9.32;3.35;;;4.20;30.80;;;;;;5036272;28;20451;-72
2023/02/27 10:07:07;;;;;;;6.25;2.75;;;4.30;30.70;;;;;;5035754;28;20800;-73
2023/02/27 10:09:55;;;;;;;6.57;3.20;;;4.40;31.20;;;;;;5034294;28;20435;-73
2023/02/27 10:12:33;;;;;;;6.82;3.40;;;4.30;32.40;;;;;;5032565;28;20441;-74
2023/02/27 10:15:09;;;;;;;14.48;3.72;;;4.50;32.10;;;;;;5014131;28;20427;-72
2023/02/27 10:17:40;;;;;;;11.30;3.60;;;4.70;31.50;;;;;;5032553;28;20745;-72
2023/02/27 10:20:15;;;;;;;7.00;3.90;;;4.80;30.80;;;;;;5033416;28;20483;-73
2023/02/27 10:22:44;;;;;;;6.25;2.90;;;4.80;29.80;;;;;;5032177;28;20371;-72
2023/02/27 10:25:14;;;;;;;7.75;3.75;;;4.80;28.40;;;;;;5032048;28;20417;-72
2023/02/27 10:27:42;;;;;;;4.83;3.10;;;4.90;28.40;;;;;;5032460;28;20399;-73
2023/02/27 10:30:21;;;;;;;9.05;3.92;;;5.00;27.40;;;;;;5032423;28;20481;-74
2023/02/27 10:32:51;;;;;;;7.35;3.30;;;5.10;30.00;;;;;;5033734;28;20389;-72
2023/02/27 10:35:27;;;;;;;5.00;2.67;;;5.30;28.60;;;;;;5034895;28;20383;-72
2023/02/27 10:38:12;;;;;;;8.93;2.30;;;5.50;26.40;;;;;;5032232;28;20407;-73
2023/02/27 10:40:40;;;;;;;5.55;2.38;;;5.50;24.00;;;;;;5032223;28;20864;-72
2023/02/27 10:43:06;;;;;;;5.80;2.20;;;5.50;24.20;;;;;;5031529;28;20752;-72
2023/02/27 10:45:32;;;;;;;4.55;2.63;;;5.50;23.90;;;;;;5032250;28;20391;-74
2023/02/27 10:48:00;;;;;;;4.57;2.00;;;5.30;24.00;;;;;;5031859;28;20465;-73
2023/02/27 10:50:30;;;;;;;11.23;2.92;;;5.30;23.70;;;;;;5031962;28;20402;-73
2023/02/27 10:53:00;;;;;;;3.67;2.00;;;5.30;23.60;;;;;;5031437;28;20449;-71
2023/02/27 10:55:34;;;;;;;6.75;2.53;;;5.20;24.30;;;;;;5032094;28;20375;-72
2023/02/27 10:58:02;;;;;;;5.60;2.50;;;5.20;25.20;;;;;;5032038;28;20887;-74
2023/02/27 11:00:39;;;;;;;5.25;2.30;;;5.30;25.40;;;;;;5033095;28;20485;-72
2023/02/27 11:03:06;;;;;;;7.07;2.30;;;5.30;26.20;;;;;;5035567;28;20387;-72
2023/02/27 11:05:36;;;;;;;6.25;2.47;;;5.20;25.40;;;;;;5018370;28;20399;-73
2023/02/27 11:08:22;;;;;;;5.10;2.67;;;5.20;25.50;;;;;;5032406;28;20392;-72
2023/02/27 11:11:05;;;;;;;3.35;2.42;;;5.50;26.40;;;;;;5032156;28;20390;-72
2023/02/27 11:13:37;;;;;;;4.60;2.85;;;5.50;25.40;;;;;;5031733;28;20406;-73
2023/02/27 11:16:14;;;;;;;5.50;2.53;;;5.80;24.20;;;;;;5031354;28;20942;-75
2023/02/27 11:18:42;;;;;;;5.32;2.20;;;6.00;23.20;;;;;;5031360;28;20449;-73
2023/02/27 11:21:11;;;;;;;5.35;2.40;;;6.10;23.00;;;;;;5031151;28;20817;-73
2023/02/27 11:23:37;;;;;;;10.90;2.97;;;6.10;23.50;;;;;;5031156;28;20819;-72
2023/02/27 11:26:14;;;;;;;4.63;2.90;;;6.20;23.60;;;;;;5030991;28;20391;-72
2023/02/27 11:28:40;;;;;;;9.38;3.20;;;6.40;22.80;;;;;;5012654;28;20390;-72
2023/02/27 11:31:20;;;;;;;6.40;2.50;;;6.40;20.60;;;;;;5031169;28;20421;-73
2023/02/27 11:33:50;;;;;;;8.82;2.63;;;6.70;19.50;;;;;;5031391;28;20486;-72
2023/02/27 11:36:16;;;;;;;6.68;3.10;;;6.90;19.90;;;;;;5031251;28;20730;-72
2023/02/27 11:38:53;;;;;;;7.80;2.83;;;7.00;20.00;;;;;;5031337;28;20441;-72
2023/02/27 11:41:20;;;;;;;7.10;2.87;;;7.20;18.80;;;;;;5030927;28;20410;-72
2023/02/27 11:43:49;;;;;;;8.82;2.55;;;7.40;19.00;;;;;;5031188;28;20383;-72
2023/02/27 11:46:23;;;;;;;9.57;2.50;;;7.50;18.30;;;;;;5031116;28;20848;-72
2023/02/27 11:49:08;;;;;;;7.00;2.00;;;7.40;18.20;;;;;;5030805;28;20438;-73
2023/02/27 11:52:12;;;;;;;5.07;2.22;;;7.10;16.60;;;;;;5031232;28;20432;-73
2023/02/27 11:54:57;;;;;;;4.55;1.90;;;6.90;18.10;;;;;;5031848;28;20875;-73
2023/02/27 11:57:29;;;;;;;5.45;2.00;;;7.00;18.30;;;;;;5030956;28;20395;-72
2023/02/27 12:00:02;;;;;;;4.70;2.45;;;6.90;18.80;;;;;;5031133;28;20375;-73
2023/02/27 12:02:46;;;;;;;3.90;1.90;;;6.90;19.10;;;;;;5030988;28;20888;-72
2023/02/27 12:05:17;;;;;;;3.83;2.20;;;7.00;19.70;;;;;;5030975;28;20387;-73
2023/02/27 12:07:51;;;;;;;10.57;2.50;;;7.10;17.60;;;;;;5031349;28;20396;-73
2023/02/27 12:10:25;;;;;;;4.50;2.10;;;7.00;18.30;;;;;;5031690;28;20405;-72
2023/02/27 12:13:03;;;;;;;7.93;2.70;;;6.90;17.30;;;;;;5031126;28;20381;-74
2023/02/27 12:15:32;;;;;;;5.90;2.40;;;6.60;18.40;;;;;;5030595;28;20475;-72
2023/02/27 12:18:26;;;;;;;4.10;2.00;;;6.70;19.20;;;;;;5030795;28;20389;-73
2023/02/27 12:21:09;;;;;;;5.95;3.20;;;6.60;18.10;;;;;;5030387;28;20383;-74
2023/02/27 12:23:42;;;;;;;5.10;2.38;;;6.50;19.20;;;;;;5030693;28;20419;-73
2023/02/27 12:26:22;;;;;;;6.75;2.63;;;6.60;19.40;;;;;;5031731;28;20390;-73
2023/02/27 12:29:09;;;;;;;4.72;2.58;;;6.70;19.00;;;;;;5031222;28;20379;-73
2023/02/27 12:31:39;;;;;;;6.65;1.92;;;6.50;18.30;;;;;;5031045;28;20393;-75
2023/02/27 12:34:29;;;;;;;4.22;2.55;;;6.50;17.60;;;;;;5031875;28;20407;-75
2023/02/27 12:37:21;;;;;;;3.47;2.20;;;6.40;18.80;;;;;;5031287;28;20453;-74
2023/02/27 12:39:46;;;;;;;4.20;2.53;;;6.50;19.00;;;;;;5034380;28;20401;-74
2023/02/27 12:42:43;;;;;;;7.22;2.60;;;6.40;18.30;;;;;;5035676;28;20871;-74
2023/02/27 12:45:25;;;;;;;4.83;2.23;;;6.40;17.90;;;;;;5036401;28;20732;-73
2023/02/27 12:48:16;;;;;;;6.33;2.50;;;6.40;18.30;;;;;;5036246;28;20391;-75
2023/02/27 12:50:48;;;;;;;6.10;2.67;;;6.60;17.70;;;;;;5036423;28;20394;-73
2023/02/27 12:53:56;;;;;;;7.28;2.20;;;6.70;17.30;;;;;;5035953;28;20412;-75
2023/02/27 12:56:25;;;;;;;7.30;2.80;;;6.80;16.70;;;;;;5035877;28;20472;-73
2023/02/27 12:59:17;;;;;;;9.10;2.60;;;7.00;16.80;;;;;;5036333;28;20382;-73
2023/02/27 13:01:50;;;;;;;4.53;2.10;;;7.00;16.50;;;;;;5035853;28;20398;-74
2023/02/27 13:04:23;;;;;;;5.30;2.10;;;7.00;17.70;;;;;;5035839;28;20415;-73
2023/02/27 13:06:59;;;;;;;4.50;2.10;;;7.00;15.80;;;;;;5018789;28;20967;-74
2023/02/27 13:09:48;;;;;;;5.07;2.00;;;6.80;16.20;;;;;;5037675;28;20422;-73
2023/02/27 13:12:32;;;;;;;7.82;2.30;;;6.70;17.00;;;;;;5040454;28;20485;-73
2023/02/27 13:15:10;;;;;;;5.10;2.20;;;6.60;17.20;;;;;;5041443;28;20468;-74